Terminal Aerodrome Forecast
Issued by NWS

Home | Current Version | Previous Version | Text Only | Print | Product List | Glossary On
Versions: 1 2 3 4 5 6 7 8 9 10 11 12 13 14 15 16 17 18 19
240
FTUS46 KSGX 251720
TAFSNA
TAF
KSNA 251720Z 2518/2618 VRB04KT P6SM FEW015 SCT200
     FM251900 22011KT P6SM BKN150
     FM260200 VRB04KT P6SM FEW011 SCT200
     FM260700 VRB03KT P6SM BKN011
     FM261600 VRB04KT P6SM FEW015=

USA.gov is the U.S. government's official web portal to all federal, state and local government web resources and services.